Hovedside
METAR-TAF:

METAR-TAF

Lufthavner :

Rabat, Marokko

breddegrad: 34-03N, lengdegrad: 006-46W, høyde over havet: 84 m

Gjeldene værobservasjon

Denne rapporten ble laget for 23 minutter siden, klokken 17:30 UTC
Vind 8 kt fra Nordvest
Temperatur 21°C
Luftfuktighet 73%
Trykk 1014 hPa
Sikt: 6000 m
Brutte skyer i en høyde av 1000 ft
Spredte skyer i en høyde av 2000 ft

METAR: GMME 231730Z 32008KT 6000 BKN010 SCT020 21/16 Q1014 NOSIG

Tid: 18:53 (17:53 UTC)

Varsel

Denne rapporten ble laget for 53 minutter siden, klokken 17:00 UTC
Varsel gyldig fra 23. klokken 18 UTC til 24. klokken 24 UTC
Vind 5 kt fra Nordvest
Sikt: 5000 m
Spredte skyer i en høyde av 1500 ft
Spredte skyer i en høyde av 2000 ft
Blir
fra 23. klokken 20 UTC til 23. klokken 22 UTC
Brutte skyer i en høyde av 1100 ft
Spredte skyer i en høyde av 2500 ft
Blir
fra 24. klokken 00 UTC til 24. klokken 02 UTC
Vind 10 kt fra Vest

TAF: GMME 231700Z 2318/2424 32005KT 5000 SCT015 SCT020 BECMG 2320/2322 BKN011 SCT025 BECMG 2400/2402 27010KT

Værobservasjoner og værvarsel for over 4000 flyplasser (METAR- og TAF-rapporter).

Tilgjengelige stasjoner er representert av de røde og gule prikkene på kartet.

Hold musepekeren over prikken for å se navnet på stasjonen.

Klikk så for å se værobservasjoner og -varsler.

For å forandre kartet kan du klikke på den grønne knappen med svart kryss for å zoome inn, på den grønne knappen med strek for å zoome ut, eller på de grønne pilene for å se tilstøtende kart.


METAR-TAF: